Time;durP1;ratioP1;P1;durP2;ratioP2;P2;SDS_P1;SDS_P2;PMS_P1;PMS_P2;Temp;Humidity;BMP_temperature;BMP_pressure;BME280_temperature;BME280_humidity;BME280_pressure;Samples;Min_cycle;Max_cycle;Signal;HPM_P1;HPM_P2
2023/07/20 00:03:24;;;;;;;4.27;2.23;;;;;;;19.59;68.05;99568.44;12246216;19;20006;-80
2023/07/20 00:07:26;;;;;;;6.32;1.98;;;;;;;19.52;69.13;99573.66;12245726;19;20014;-80
2023/07/20 00:11:28;;;;;;;4.95;2.10;;;;;;;19.47;68.84;99574.56;12212073;19;20021;-80
2023/07/20 00:15:30;;;;;;;4.05;2.22;;;;;;;19.43;69.45;99570.78;12215867;19;20116;-81
2023/07/20 00:19:32;;;;;;;6.13;1.92;;;;;;;19.40;69.63;99567.78;12217741;19;20779;-80
2023/07/20 00:23:34;;;;;;;3.67;1.90;;;;;;;19.30;69.75;99569.69;12197572;19;20047;-80
2023/07/20 00:27:37;;;;;;;;;;;;;;;19.19;69.79;99568.25;12219329;19;20659;-79
2023/07/20 00:31:38;;;;;;;10.45;2.38;;;;;;;19.10;70.13;99573.72;12220958;19;19922;-79
2023/07/20 00:35:40;;;;;;;4.43;2.38;;;;;;;19.05;70.62;99571.03;12197573;19;20015;-80
2023/07/20 00:39:42;;;;;;;7.35;2.40;;;;;;;19.04;70.73;99574.97;12219791;19;20015;-80
2023/07/20 00:43:44;;;;;;;4.72;2.08;;;;;;;19.05;72.57;99571.03;12219614;19;20018;-80
2023/07/20 00:47:46;;;;;;;7.22;1.98;;;;;;;19.04;74.46;99569.41;12205894;19;20015;-79
2023/07/20 00:51:49;;;;;;;7.25;2.20;;;;;;;19.02;74.90;99571.66;12223112;19;20034;-79
2023/07/20 00:55:51;;;;;;;4.30;1.95;;;;;;;18.98;76.04;99581.00;12221065;19;20002;-81
2023/07/20 00:59:53;;;;;;;3.67;1.87;;;;;;;18.89;76.57;99578.09;12223917;19;20058;-81
2023/07/20 01:03:55;;;;;;;4.97;2.22;;;;;;;18.76;77.04;99576.13;12220438;19;20026;-81
2023/07/20 01:08:02;;;;;;;5.22;2.40;;;;;;;18.61;78.03;99578.03;12224077;19;20015;-81
2023/07/20 01:12:11;;;;;;;5.00;2.30;;;;;;;18.45;78.94;99587.84;12202381;19;20365;-82
2023/07/20 01:16:13;;;;;;;4.93;2.42;;;;;;;18.26;79.83;99581.50;12225666;19;20010;-82
2023/07/20 01:20:17;;;;;;;7.22;2.78;;;;;;;18.10;81.60;99578.16;12210420;19;20031;-80
2023/07/20 01:24:31;;;;;;;8.55;2.17;;;;;;;17.92;82.61;99575.13;12237791;19;20003;-80
2023/07/20 01:29:07;;;;;;;4.53;1.98;;;;;;;17.75;84.46;99581.19;12249850;19;20050;-81
2023/07/20 01:33:13;;;;;;;7.68;2.60;;;;;;;17.61;86.19;99585.06;12220922;19;20006;-81
2023/07/20 01:37:16;;;;;;;6.70;2.83;;;;;;;17.48;87.37;99578.28;12226818;19;20030;-81
2023/07/20 01:41:18;;;;;;;6.63;2.58;;;;;;;17.38;88.37;99582.06;12205750;19;20010;-82
2023/07/20 01:45:20;;;;;;;5.18;2.75;;;;;;;17.27;89.97;99581.38;12226145;19;20593;-81
2023/07/20 01:49:22;;;;;;;5.70;2.60;;;;;;;17.21;90.49;99584.53;12225361;19;20037;-80
2023/07/20 01:53:24;;;;;;;4.25;2.40;;;;;;;17.11;91.67;99579.13;12201363;19;20022;-81
2023/07/20 01:57:25;;;;;;;5.32;2.60;;;;;;;17.02;92.31;99576.97;12227524;19;20028;-81
2023/07/20 02:01:28;;;;;;;6.57;2.58;;;;;;;16.92;93.54;99584.63;12227042;19;20026;-81
2023/07/20 02:05:30;;;;;;;;;;;;;;;16.81;94.29;99587.53;12203156;19;19999;-81
2023/07/20 02:09:32;;;;;;;7.55;2.83;;;;;;;16.73;94.91;99582.59;12225463;19;19919;-81
2023/07/20 02:13:34;;;;;;;6.47;2.20;;;;;;;16.68;96.67;99591.00;12222444;19;20011;-81
2023/07/20 02:17:35;;;;;;;5.05;2.75;;;;;;;16.62;97.60;99584.66;12203952;19;20004;-81
2023/07/20 02:21:38;;;;;;;7.83;3.13;;;;;;;16.55;98.14;99578.63;12226334;19;20014;-81
2023/07/20 02:25:40;;;;;;;5.32;2.53;;;;;;;16.50;99.02;99583.41;12226534;19;20022;-81
2023/07/20 02:29:42;;;;;;;7.28;2.45;;;;;;;16.45;100.00;99594.59;12201933;19;20010;-81
2023/07/20 02:33:45;;;;;;;;;;;;;;;16.38;100.00;99590.19;12222794;19;20007;-81
2023/07/20 02:37:47;;;;;;;4.18;2.00;;;;;;;16.34;100.00;99583.56;12222267;19;20378;-80
2023/07/20 02:41:50;;;;;;;7.80;1.98;;;;;;;16.31;100.00;99589.72;12198369;19;20015;-80
2023/07/20 02:45:53;;;;;;;7.50;2.30;;;;;;;16.26;100.00;99586.16;12217928;19;20010;-80
2023/07/20 02:49:55;;;;;;;5.03;2.67;;;;;;;16.20;100.00;99595.69;12222057;19;20010;-81
2023/07/20 02:53:56;;;;;;;4.82;2.20;;;;;;;16.14;100.00;99589.34;12195684;19;20366;-81
2023/07/20 02:57:58;;;;;;;4.65;2.00;;;;;;;16.08;100.00;99596.06;12220756;19;20019;-80
2023/07/20 03:02:00;;;;;;;3.63;2.58;;;;;;;16.03;100.00;99596.09;12220815;19;20473;-80
2023/07/20 03:06:02;;;;;;;5.38;2.38;;;;;;;15.99;100.00;99597.81;12199531;19;20018;-81
2023/07/20 03:10:06;;;;;;;4.97;2.60;;;;;;;15.93;100.00;99595.06;12219913;19;20010;-81
2023/07/20 03:14:08;;;;;;;6.82;2.65;;;;;;;15.90;100.00;99603.97;12217735;19;20086;-81
2023/07/20 03:18:10;;;;;;;6.30;3.15;;;;;;;15.88;100.00;99602.59;12196257;19;20007;-81
2023/07/20 03:22:12;;;;;;;4.63;2.33;;;;;;;15.83;100.00;99603.50;12218835;19;20030;-81
2023/07/20 03:26:13;;;;;;;6.70;2.17;;;;;;;15.79;100.00;99609.91;12219798;19;20006;-81
2023/07/20 03:30:15;;;;;;;5.13;2.10;;;;;;;15.70;100.00;99604.13;12197911;19;20006;-81
2023/07/20 03:34:17;;;;;;;9.48;3.55;;;;;;;15.65;100.00;99612.50;12213793;19;20010;-81
2023/07/20 03:38:19;;;;;;;6.90;2.50;;;;;;;15.61;100.00;99612.22;12197073;19;20013;-80
2023/07/20 03:42:21;;;;;;;4.22;2.53;;;;;;;15.61;100.00;99608.63;12217803;19;20011;-81
2023/07/20 03:46:23;;;;;;;3.88;3.10;;;;;;;15.59;100.00;99614.47;12217426;19;19998;-82
2023/07/20 03:50:25;;;;;;;6.15;2.75;;;;;;;15.59;100.00;99608.09;12196406;19;20056;-81
2023/07/20 03:54:27;;;;;;;6.00;2.50;;;;;;;15.58;100.00;99606.41;12214741;19;20006;-81
2023/07/20 03:58:30;;;;;;;5.72;2.53;;;;;;;15.57;100.00;99613.09;12214196;19;20022;-81
2023/07/20 04:02:32;;;;;;;5.40;2.55;;;;;;;15.58;100.00;99614.75;12194696;19;20019;-80
2023/07/20 04:06:34;;;;;;;6.40;2.60;;;;;;;15.57;100.00;99610.31;12219818;19;20366;-80
2023/07/20 04:10:35;;;;;;;4.07;2.53;;;;;;;15.56;100.00;99612.28;12217013;19;20050;-81
2023/07/20 04:14:37;;;;;;;6.78;2.45;;;;;;;15.57;100.00;99607.53;12193781;19;20014;-80
2023/07/20 04:18:39;;;;;;;5.20;2.20;;;;;;;15.60;100.00;99612.53;12217268;19;20030;-81
2023/07/20 04:22:41;;;;;;;5.22;2.58;;;;;;;15.61;100.00;99616.94;12217385;19;20017;-81
2023/07/20 04:26:46;;;;;;;3.83;2.58;;;;;;;15.61;100.00;99619.72;12197726;19;20094;-80
2023/07/20 04:30:50;;;;;;;5.93;3.08;;;;;;;15.62;100.00;99618.63;12214372;19;20010;-80
2023/07/20 04:34:53;;;;;;;6.45;2.70;;;;;;;15.64;100.00;99619.16;12212978;19;20017;-81
2023/07/20 04:38:55;;;;;;;5.70;2.30;;;;;;;15.67;100.00;99627.75;12188505;19;20036;-80
2023/07/20 04:42:57;;;;;;;3.87;2.33;;;;;;;15.68;100.00;99628.63;12211764;19;20015;-81
2023/07/20 04:46:59;;;;;;;4.55;2.35;;;;;;;15.72;100.00;99636.06;12212558;19;20070;-81
2023/07/20 04:51:03;;;;;;;8.98;2.75;;;;;;;15.77;100.00;99632.44;12191080;19;20512;-81
2023/07/20 04:55:05;;;;;;;4.90;2.25;;;;;;;15.79;100.00;99630.19;12208694;19;20015;-81
2023/07/20 04:59:07;;;;;;;7.70;2.07;;;;;;;15.84;100.00;99635.72;12213367;19;20026;-81
2023/07/20 05:03:09;;;;;;;7.20;2.15;;;;;;;15.88;100.00;99631.25;12187350;19;19999;-81
2023/07/20 05:07:11;;;;;;;4.80;2.07;;;;;;;15.94;100.00;99630.09;12219548;19;20313;-81
2023/07/20 05:11:13;;;;;;;5.13;2.75;;;;;;;16.01;100.00;99637.25;12223179;19;20017;-82
2023/07/20 05:15:15;;;;;;;5.70;2.20;;;;;;;16.06;100.00;99638.06;12197776;19;20388;-82
2023/07/20 05:19:17;;;;;;;5.80;2.47;;;;;;;16.13;100.00;99643.28;12220804;19;20422;-82
2023/07/20 05:23:22;;;;;;;7.20;2.63;;;;;;;16.20;100.00;99638.19;12198178;19;20016;-82
2023/07/20 05:27:24;;;;;;;5.45;2.25;;;;;;;16.27;100.00;99637.84;12225065;19;20479;-83
2023/07/20 05:31:26;;;;;;;9.20;2.60;;;;;;;16.33;100.00;99636.69;12225274;19;20045;-82
2023/07/20 05:35:28;;;;;;;7.87;2.20;;;;;;;16.40;100.00;99640.81;12199004;19;20011;-83
2023/07/20 05:39:32;;;;;;;5.13;2.15;;;;;;;16.52;100.00;99642.38;12220290;19;20591;-80
2023/07/20 05:43:34;;;;;;;5.60;2.63;;;;;;;16.61;100.00;99643.38;12211587;19;20110;-81
2023/07/20 05:47:35;;;;;;;7.28;2.95;;;;;;;16.75;100.00;99647.13;12194069;19;20000;-80
2023/07/20 05:51:39;;;;;;;5.15;2.20;;;;;;;16.89;100.00;99647.28;12217521;19;20006;-81
2023/07/20 05:55:41;;;;;;;10.40;3.40;;;;;;;17.02;99.01;99651.31;12222049;19;20059;-81
2023/07/20 05:59:44;;;;;;;6.70;2.58;;;;;;;17.14;98.00;99643.38;12200056;19;20010;-80
2023/07/20 06:03:46;;;;;;;5.28;2.40;;;;;;;17.27;96.58;99653.78;12226878;19;20038;-80
2023/07/20 06:07:47;;;;;;;5.57;2.53;;;;;;;17.41;95.77;99651.09;12229468;19;20007;-80
2023/07/20 06:11:49;;;;;;;5.18;2.17;;;;;;;17.56;94.99;99655.63;12205484;19;20014;-81
2023/07/20 06:15:51;;;;;;;6.77;2.70;;;;;;;17.70;94.29;99653.75;12226469;19;20002;-81
2023/07/20 06:19:53;;;;;;;5.35;2.05;;;;;;;17.82;94.12;99655.28;12230590;19;20021;-81
2023/07/20 06:23:55;;;;;;;5.65;2.75;;;;;;;17.92;92.53;99661.53;12207155;19;20003;-81
2023/07/20 06:27:57;;;;;;;7.28;2.95;;;;;;;18.03;92.40;99658.59;12228014;19;20369;-81
2023/07/20 06:31:59;;;;;;;7.20;2.33;;;;;;;18.18;92.14;99664.75;12228167;19;20027;-81
2023/07/20 06:36:01;;;;;;;6.93;2.67;;;;;;;18.33;91.93;99668.41;12203868;19;20006;-81
2023/07/20 06:40:04;;;;;;;7.13;2.53;;;;;;;18.50;90.33;99665.91;12224311;19;20014;-81
2023/07/20 06:44:09;;;;;;;7.15;2.65;;;;;;;18.83;87.90;99666.72;12223497;19;20027;-81
2023/07/20 06:48:11;;;;;;;6.20;2.30;;;;;;;19.21;86.56;99662.88;12204212;19;20023;-81
2023/07/20 06:52:12;;;;;;;5.80;2.10;;;;;;;19.30;84.56;99661.00;12228787;19;20032;-81
2023/07/20 06:56:14;;;;;;;6.50;2.58;;;;;;;19.34;83.77;99676.03;12222352;19;20464;-81
2023/07/20 07:00:17;;;;;;;6.35;2.15;;;;;;;19.49;83.04;99670.13;12217555;19;20400;-81
2023/07/20 07:04:20;;;;;;;8.98;2.20;;;;;;;19.68;81.68;99671.97;12226852;19;20038;-81
2023/07/20 07:08:22;;;;;;;5.23;2.13;;;;;;;19.98;81.34;99676.84;12203420;19;20074;-82
2023/07/20 07:12:23;;;;;;;6.88;2.25;;;;;;;20.63;78.67;99671.94;12226499;19;20338;-80
2023/07/20 07:16:25;;;;;;;5.30;2.55;;;;;;;21.16;73.91;99679.44;12229658;19;20006;-81
2023/07/20 07:20:27;;;;;;;6.68;2.20;;;;;;;21.37;72.42;99683.34;12209782;19;20050;-80
2023/07/20 07:24:33;;;;;;;4.97;2.27;;;;;;;21.34;72.06;99683.13;12225796;19;20015;-81
2023/07/20 07:28:36;;;;;;;5.05;2.22;;;;;;;21.35;71.53;99685.59;12224094;19;20022;-80
2023/07/20 07:32:38;;;;;;;;;;;;;;;21.20;70.79;99682.41;12203590;19;20017;-80
2023/07/20 07:36:39;;;;;;;10.63;3.95;;;;;;;21.21;71.56;99684.91;12226001;19;19914;-79
2023/07/20 07:40:42;;;;;;;8.13;2.40;;;;;;;21.08;71.84;99685.81;12222668;19;20010;-79
2023/07/20 07:44:45;;;;;;;4.53;2.30;;;;;;;21.00;72.82;99681.00;12199674;19;20014;-80
2023/07/20 07:48:47;;;;;;;7.22;2.13;;;;;;;21.06;71.00;99691.75;12223842;19;20031;-79
2023/07/20 07:52:49;;;;;;;5.60;2.42;;;;;;;21.52;69.73;99676.44;12226528;19;20015;-79
2023/07/20 07:56:52;;;;;;;7.38;2.80;;;;;;;21.99;67.26;99689.88;12204747;19;20041;-81
2023/07/20 08:00:55;;;;;;;5.10;3.20;;;;;;;22.06;66.32;99682.63;12268266;19;20010;-79
2023/07/20 08:04:57;;;;;;;8.05;2.47;;;;;;;21.71;67.13;99692.97;12270209;19;20023;-79
2023/07/20 08:08:59;;;;;;;8.68;2.30;;;;;;;21.55;68.56;99689.00;12242986;19;20119;-82
2023/07/20 08:13:03;;;;;;;5.13;2.03;;;;;;;21.82;67.27;99688.69;12234359;19;20014;-82
2023/07/20 08:17:05;;;;;;;3.63;2.47;;;;;;;22.15;65.79;99679.81;12232458;19;20011;-82
2023/07/20 08:21:08;;;;;;;5.07;2.55;;;;;;;22.33;64.41;99686.28;12210042;19;20013;-81
2023/07/20 08:25:10;;;;;;;6.67;2.90;;;;;;;22.41;63.43;99679.00;12227221;19;20378;-80
2023/07/20 08:29:12;;;;;;;4.82;1.95;;;;;;;22.42;63.14;99675.03;12222084;19;20468;-83
2023/07/20 08:33:14;;;;;;;5.20;2.40;;;;;;;22.57;63.02;99671.69;12195781;19;20010;-81
2023/07/20 08:37:16;;;;;;;4.18;2.40;;;;;;;22.47;61.86;99681.31;12226970;19;20007;-82
2023/07/20 08:41:19;;;;;;;6.72;2.58;;;;;;;22.56;61.69;99681.28;12205454;19;20074;-81
2023/07/20 08:45:22;;;;;;;6.00;2.25;;;;;;;22.43;61.64;99679.50;12232911;19;20002;-82
2023/07/20 08:49:24;;;;;;;7.00;2.17;;;;;;;22.37;60.90;99686.44;12234217;19;20701;-82
2023/07/20 08:53:27;;;;;;;3.90;1.73;;;;;;;22.62;60.33;99676.34;12213133;19;20007;-82
2023/07/20 08:57:32;;;;;;;5.97;2.00;;;;;;;22.94;58.73;99677.72;12231551;19;20013;-82
2023/07/20 09:01:38;;;;;;;3.30;2.47;;;;;;;22.87;58.92;99674.59;12232005;19;20007;-82
2023/07/20 09:05:41;;;;;;;6.35;2.30;;;;;;;22.94;59.65;99672.97;12211624;19;20011;-81
2023/07/20 09:09:46;;;;;;;5.15;1.80;;;;;;;23.25;58.31;99668.22;12231425;19;20011;-80
2023/07/20 09:14:09;;;;;;;3.42;1.85;;;;;;;23.78;54.33;99678.84;12232029;19;20015;-81
2023/07/20 09:18:11;;;;;;;4.68;1.77;;;;;;;23.79;55.47;99665.59;12210060;19;20010;-80
2023/07/20 09:22:13;;;;;;;6.28;2.67;;;;;;;23.82;54.59;99668.53;12235868;19;20006;-79
2023/07/20 09:26:16;;;;;;;7.93;2.10;;;;;;;23.67;54.59;99667.13;12212129;19;20002;-79
2023/07/20 09:30:18;;;;;;;4.47;2.22;;;;;;;23.68;55.09;99673.59;12230103;19;20018;-79
2023/07/20 09:34:20;;;;;;;6.10;1.95;;;;;;;23.63;54.22;99668.16;12227287;19;20019;-79
2023/07/20 09:38:26;;;;;;;3.92;1.92;;;;;;;24.02;53.14;99661.28;12203303;19;20022;-79
2023/07/20 09:42:28;;;;;;;5.43;2.10;;;;;;;23.93;52.58;99671.78;12226707;19;20397;-80
2023/07/20 09:46:47;;;;;;;4.40;2.05;;;;;;;23.82;50.86;99662.09;12229058;19;20463;-81
2023/07/20 09:50:53;;;;;;;4.28;1.65;;;;;;;24.24;48.69;99662.94;12205724;19;20011;-80
2023/07/20 09:54:57;;;;;;;3.45;1.38;;;;;;;24.37;48.29;99660.16;12227553;19;20092;-80
2023/07/20 09:59:00;;;;;;;4.20;2.45;;;;;;;24.20;49.72;99656.31;12227390;19;20460;-79
2023/07/20 10:03:03;;;;;;;6.82;2.72;;;;;;;24.58;48.73;99655.31;12196505;19;20482;-80
2023/07/20 10:07:11;;;;;;;6.22;1.63;;;;;;;24.94;46.69;99646.13;12224012;19;19999;-79
2023/07/20 10:11:15;;;;;;;4.43;1.60;;;;;;;25.04;46.14;99639.19;12219075;19;20011;-80
2023/07/20 10:15:21;;;;;;;3.33;1.60;;;;;;;25.04;44.32;99632.75;12199477;19;20014;-80
2023/07/20 10:19:42;;;;;;;3.22;1.90;;;;;;;25.36;43.79;99639.47;12223242;19;20083;-80
2023/07/20 10:23:51;;;;;;;6.50;1.80;;;;;;;25.82;42.79;99635.34;12200785;19;20059;-80
2023/07/20 10:27:54;;;;;;;3.80;1.42;;;;;;;25.68;42.68;99623.56;12224569;19;20032;-80
2023/07/20 10:31:57;;;;;;;3.35;1.38;;;;;;;25.51;42.92;99630.28;12223973;19;20031;-79
2023/07/20 10:36:07;;;;;;;2.88;1.52;;;;;;;25.51;43.17;99630.28;12202553;19;20017;-80
2023/07/20 10:40:32;;;;;;;3.45;1.50;;;;;;;25.78;42.79;99630.72;12224465;19;20011;-79
2023/07/20 10:44:37;;;;;;;3.38;2.00;;;;;;;25.91;42.11;99621.91;12215138;19;20023;-80
2023/07/20 10:49:04;;;;;;;8.63;2.00;;;;;;;25.78;41.51;99617.44;12245128;19;20017;-79
2023/07/20 10:53:12;;;;;;;9.15;2.25;;;;;;;25.95;41.93;99613.53;12232374;19;20161;-80
2023/07/20 10:57:31;;;;;;;3.10;1.73;;;;;;;26.37;41.14;99599.81;12198364;19;20035;-79
2023/07/20 11:01:36;;;;;;;2.95;1.58;;;;;;;26.55;40.99;99605.16;12231294;19;20074;-80
2023/07/20 11:05:40;;;;;;;4.47;1.90;;;;;;;26.22;40.98;99602.63;12196849;19;20361;-80
2023/07/20 11:09:43;;;;;;;3.03;1.58;;;;;;;26.58;41.01;99604.44;12220967;19;20010;-81
2023/07/20 11:14:00;;;;;;;3.88;1.70;;;;;;;26.77;39.88;99584.78;12220902;19;20014;-82
2023/07/20 11:18:14;;;;;;;2.42;1.38;;;;;;;27.36;38.75;99585.81;12201961;19;20011;-79
2023/07/20 11:22:17;;;;;;;3.55;1.45;;;;;;;27.60;35.86;99579.09;12222591;19;20018;-81
2023/07/20 11:26:19;;;;;;;4.25;1.90;;;;;;;27.48;36.17;99588.56;12197679;19;20014;-80
2023/07/20 11:30:21;;;;;;;3.17;1.80;;;;;;;27.19;37.77;99581.41;12223401;19;20069;-80
2023/07/20 11:34:24;;;;;;;4.03;1.63;;;;;;;26.89;38.11;99574.53;12218019;19;20014;-80
2023/07/20 11:38:25;;;;;;;;;;;;;;;26.10;38.54;99581.72;12200906;19;20014;-80
2023/07/20 11:42:28;;;;;;;2.85;1.40;;;;;;;26.20;38.55;99583.19;12218693;19;19918;-81
2023/07/20 11:46:33;;;;;;;9.18;2.65;;;;;;;26.86;38.14;99578.09;12224007;19;20397;-78
2023/07/20 11:50:39;;;;;;;6.18;1.60;;;;;;;26.80;37.89;99578.41;12199169;19;20022;-81
2023/07/20 11:54:43;;;;;;;4.00;1.80;;;;;;;26.33;38.55;99576.31;12216013;19;20013;-80
2023/07/20 11:58:50;;;;;;;4.93;1.95;;;;;;;26.20;39.11;99566.25;12219923;19;20018;-82
2023/07/20 12:02:53;;;;;;;2.65;1.60;;;;;;;26.25;39.04;99571.63;12195660;19;20029;-82
2023/07/20 12:06:55;;;;;;;4.28;1.50;;;;;;;26.14;39.20;99570.50;12213640;19;20132;-81
2023/07/20 12:10:57;;;;;;;4.88;1.63;;;;;;;26.15;38.94;99566.53;12221912;19;20007;-80
2023/07/20 12:15:19;;;;;;;4.00;1.60;;;;;;;26.16;39.34;99554.03;12193125;19;20014;-80
2023/07/20 12:19:25;;;;;;;3.03;1.50;;;;;;;25.95;39.34;99551.44;12217538;19;20010;-84
2023/07/20 12:23:34;;;;;;;7.00;1.67;;;;;;;25.67;40.13;99557.00;12199335;19;20026;-80
2023/07/20 12:27:37;;;;;;;3.30;1.50;;;;;;;25.77;40.37;99564.19;12228390;19;20029;-80
2023/07/20 12:31:39;;;;;;;3.38;1.50;;;;;;;25.92;40.56;99557.78;12239029;19;20006;-81
2023/07/20 12:35:43;;;;;;;5.95;1.60;;;;;;;25.96;40.62;99560.72;12203938;19;20370;-81
2023/07/20 12:39:46;;;;;;;4.38;1.40;;;;;;;25.94;39.97;99551.78;12225293;19;20021;-81
2023/07/20 12:43:49;;;;;;;3.72;1.73;;;;;;;25.99;40.22;99560.00;12223505;19;20022;-81
2023/07/20 12:47:52;;;;;;;6.10;1.77;;;;;;;26.03;40.35;99552.47;12213420;19;20468;-82
2023/07/20 12:51:54;;;;;;;4.28;1.90;;;;;;;26.36;40.28;99553.00;12229461;19;20010;-82
2023/07/20 12:55:55;;;;;;;3.80;1.50;;;;;;;27.85;38.43;99548.56;12227562;19;20015;-83
2023/07/20 12:59:57;;;;;;;2.63;1.63;;;;;;;29.74;34.61;99536.00;12209480;19;20014;-80
2023/07/20 13:03:59;;;;;;;4.93;1.85;;;;;;;31.21;32.76;99524.09;12224430;19;20015;-80
2023/07/20 13:08:05;;;;;;;9.30;1.80;;;;;;;32.87;30.87;99523.47;12227905;19;20497;-82
2023/07/20 13:12:10;;;;;;;2.58;1.58;;;;;;;34.24;27.79;99519.09;12207657;19;20011;-81
2023/07/20 13:16:12;;;;;;;3.08;1.67;;;;;;;35.55;26.44;99501.22;12227230;19;20482;-81
2023/07/20 13:20:14;;;;;;;3.65;1.80;;;;;;;36.26;25.36;99503.19;12230678;19;20011;-82
2023/07/20 13:24:17;;;;;;;3.22;1.77;;;;;;;36.63;24.17;99495.66;12203693;19;20015;-81
2023/07/20 13:28:18;;;;;;;3.55;1.63;;;;;;;35.58;24.79;99501.19;12239019;19;20018;-84
2023/07/20 13:32:20;;;;;;;2.20;1.65;;;;;;;33.66;26.32;99504.22;12224631;19;20017;-82
2023/07/20 13:36:23;;;;;;;3.08;1.80;;;;;;;31.81;28.55;99504.91;12242185;19;20423;-82
2023/07/20 13:40:25;;;;;;;3.65;1.85;;;;;;;30.72;29.73;99513.13;12244492;19;20022;-81
2023/07/20 13:44:26;;;;;;;4.30;1.73;;;;;;;30.23;30.38;99498.06;12219234;19;20010;-80
2023/07/20 13:48:31;;;;;;;2.85;1.52;;;;;;;30.35;29.91;99494.94;12245072;19;20007;-86
2023/07/20 13:52:38;;;;;;;4.70;1.67;;;;;;;29.83;30.80;99487.44;12242644;19;20404;-82
2023/07/20 13:56:42;;;;;;;2.22;1.60;;;;;;;29.01;31.82;99485.06;12214924;19;20010;-81
2023/07/20 14:00:44;;;;;;;11.57;2.25;;;;;;;28.63;32.65;99486.91;12240957;19;20058;-81
2023/07/20 14:04:49;;;;;;;7.88;2.10;;;;;;;28.39;33.62;99487.25;12239116;19;20007;-80
2023/07/20 14:09:13;;;;;;;3.95;1.73;;;;;;;28.29;33.05;99493.53;12214750;19;20010;-81
2023/07/20 14:13:15;;;;;;;3.08;1.58;;;;;;;30.15;31.78;99476.41;12239443;19;20014;-84
2023/07/20 14:17:17;;;;;;;4.55;1.50;;;;;;;31.90;29.86;99463.47;12220202;19;20014;-81
2023/07/20 14:21:21;;;;;;;3.38;1.75;;;;;;;32.20;29.20;99465.16;12242662;19;20009;-81
2023/07/20 14:25:26;;;;;;;4.13;1.75;;;;;;;33.19;27.48;99463.53;12234125;19;20497;-81
2023/07/20 14:29:31;;;;;;;3.60;1.80;;;;;;;33.99;25.96;99451.38;12220419;19;20003;-83
2023/07/20 14:33:33;;;;;;;5.97;1.67;;;;;;;33.00;26.41;99452.56;12242958;19;20009;-81
2023/07/20 14:37:36;;;;;;;4.28;1.98;;;;;;;32.38;26.44;99450.91;12236650;19;20131;-81
2023/07/20 14:41:39;;;;;;;3.90;1.70;;;;;;;31.52;27.58;99445.00;12221539;19;20014;-80
2023/07/20 14:45:41;;;;;;;2.25;1.60;;;;;;;30.88;28.71;99437.72;12235001;19;20018;-82
2023/07/20 14:49:44;;;;;;;8.63;1.90;;;;;;;30.51;28.87;99432.13;12229036;19;20011;-82
2023/07/20 14:53:46;;;;;;;2.45;1.58;;;;;;;30.73;28.71;99429.44;12206625;19;20027;-81
2023/07/20 14:57:48;;;;;;;;;;;;;;;30.43;28.96;99427.59;12235181;19;20041;-81
2023/07/20 15:01:51;;;;;;;3.33;1.63;;;;;;;29.97;28.81;99428.75;12228985;19;19906;-83
2023/07/20 15:05:56;;;;;;;4.30;1.70;;;;;;;30.20;29.56;99417.25;12208632;19;20384;-81
2023/07/20 15:09:58;;;;;;;5.32;1.75;;;;;;;31.01;28.22;99414.63;12223744;19;20353;-82
2023/07/20 15:14:00;;;;;;;;;;;;;;;30.91;28.57;99413.34;12225997;19;20007;-80
2023/07/20 15:18:01;;;;;;;3.70;1.50;;;;;;;32.35;27.08;99408.97;12208697;19;19915;-81
2023/07/20 15:22:05;;;;;;;3.58;1.63;;;;;;;34.07;25.35;99406.44;12231662;19;20397;-81
2023/07/20 15:26:11;;;;;;;8.82;1.90;;;;;;;34.37;24.59;99402.94;12232873;19;20378;-82
2023/07/20 15:30:14;;;;;;;2.95;1.55;;;;;;;33.45;25.53;99393.69;12213012;19;20050;-81
2023/07/20 15:34:35;;;;;;;4.25;1.80;;;;;;;32.31;26.55;99393.91;12231305;19;20060;-81
2023/07/20 15:38:37;;;;;;;4.00;1.55;;;;;;;31.36;26.43;99381.88;12201669;19;20045;-81
2023/07/20 15:42:44;;;;;;;3.05;1.50;;;;;;;30.58;27.10;99377.31;12225861;19;20365;-82
2023/07/20 15:46:54;;;;;;;3.10;1.60;;;;;;;29.69;28.19;99381.00;12232227;19;20402;-80
2023/07/20 15:50:56;;;;;;;2.53;1.40;;;;;;;29.37;28.34;99366.41;12236076;19;20027;-81
2023/07/20 15:54:58;;;;;;;2.55;1.40;;;;;;;29.50;27.86;99364.13;12252930;19;20010;-81
2023/07/20 15:58:59;;;;;;;3.45;1.20;;;;;;;29.33;28.41;99365.56;12248750;19;20013;-83
2023/07/20 16:03:01;;;;;;;3.75;1.38;;;;;;;28.91;28.55;99360.94;12212386;19;20014;-81
2023/07/20 16:07:06;;;;;;;3.30;1.58;;;;;;;28.34;29.68;99360.06;12228318;19;20038;-79
2023/07/20 16:11:08;;;;;;;4.18;1.23;;;;;;;27.99;29.91;99354.63;12224373;19;20022;-81
2023/07/20 16:15:11;;;;;;;3.20;1.30;;;;;;;27.55;30.55;99357.84;12210250;19;20002;-81
2023/07/20 16:19:12;;;;;;;;;;;;;;;27.11;30.92;99356.16;12225890;19;20003;-82
2023/07/20 16:23:14;;;;;;;2.17;1.42;;;;;;;26.82;31.47;99349.06;12225547;19;19932;-80
2023/07/20 16:27:16;;;;;;;2.28;1.38;;;;;;;26.53;32.01;99344.75;12228809;19;20014;-80
2023/07/20 16:31:18;;;;;;;5.18;1.60;;;;;;;26.33;32.34;99353.16;12226611;19;20026;-81
2023/07/20 16:35:20;;;;;;;3.47;1.30;;;;;;;26.17;32.30;99345.88;12201990;19;20014;-80
2023/07/20 16:39:43;;;;;;;3.87;1.83;;;;;;;26.07;32.66;99344.44;12217681;19;20508;-80
2023/07/20 16:43:48;;;;;;;4.00;1.63;;;;;;;26.03;33.25;99352.03;12216381;19;20354;-81
2023/07/20 16:47:54;;;;;;;4.53;1.33;;;;;;;25.81;34.03;99344.97;12196818;19;20010;-80
2023/07/20 16:51:57;;;;;;;6.82;1.70;;;;;;;25.69;34.08;99352.31;12217714;19;20011;-81
2023/07/20 16:55:59;;;;;;;5.13;1.60;;;;;;;25.59;34.67;99344.41;12217437;19;20003;-80
2023/07/20 17:00:01;;;;;;;8.15;2.53;;;;;;;25.53;34.99;99350.69;12189564;19;20014;-81
2023/07/20 17:04:03;;;;;;;4.43;1.70;;;;;;;25.54;34.57;99347.47;12217286;19;20011;-79
2023/07/20 17:08:05;;;;;;;2.30;1.45;;;;;;;25.58;34.51;99347.56;12223520;19;20011;-81
2023/07/20 17:12:08;;;;;;;5.00;1.60;;;;;;;25.71;34.81;99346.31;12197214;19;20377;-79
2023/07/20 17:16:10;;;;;;;4.25;1.85;;;;;;;25.78;35.18;99346.50;12223233;19;20271;-82
2023/07/20 17:20:12;;;;;;;3.97;1.70;;;;;;;25.63;34.89;99341.66;12224260;19;20003;-79
2023/07/20 17:24:18;;;;;;;4.55;1.73;;;;;;;25.62;35.07;99345.69;12194777;19;20006;-80
2023/07/20 17:28:22;;;;;;;3.08;1.50;;;;;;;25.72;35.18;99342.31;12225514;19;20027;-78
2023/07/20 17:32:28;;;;;;;2.97;1.60;;;;;;;25.85;34.75;99341.09;12202259;19;20014;-81
2023/07/20 17:36:30;;;;;;;2.17;1.50;;;;;;;25.70;35.47;99339.06;12223661;19;20002;-79
2023/07/20 17:40:34;;;;;;;5.28;1.70;;;;;;;25.48;35.38;99331.19;12225516;19;20031;-80
2023/07/20 17:44:38;;;;;;;4.25;1.48;;;;;;;25.35;35.61;99327.63;12201607;19;20014;-80
2023/07/20 17:48:40;;;;;;;2.72;1.27;;;;;;;25.29;35.32;99329.88;12220816;19;20018;-79
2023/07/20 17:52:42;;;;;;;2.33;1.45;;;;;;;25.15;35.92;99330.28;12221631;19;20361;-79
2023/07/20 17:56:44;;;;;;;5.80;2.05;;;;;;;25.04;35.90;99333.94;12200667;19;20010;-80
2023/07/20 18:00:46;;;;;;;3.47;1.90;;;;;;;24.87;36.27;99332.25;12223623;19;20341;-80
2023/07/20 18:04:47;;;;;;;2.90;1.45;;;;;;;24.62;36.04;99326.69;12218225;19;20010;-80
2023/07/20 18:08:49;;;;;;;6.73;1.93;;;;;;;24.43;36.68;99335.75;12182377;19;20323;-79
2023/07/20 18:12:52;;;;;;;3.30;1.40;;;;;;;24.27;37.26;99331.97;12209522;19;20102;-80
2023/07/20 18:16:53;;;;;;;4.13;2.20;;;;;;;24.11;37.71;99334.69;12221205;19;20010;-81
2023/07/20 18:20:55;;;;;;;3.97;2.57;;;;;;;23.98;37.79;99333.06;12199825;19;20014;-79
2023/07/20 18:24:57;;;;;;;3.83;1.80;;;;;;;23.85;38.81;99337.84;12222296;19;20018;-80
2023/07/20 18:29:01;;;;;;;4.87;1.73;;;;;;;23.80;38.89;99338.09;12223704;19;20788;-80
2023/07/20 18:33:03;;;;;;;3.25;1.42;;;;;;;23.74;38.92;99342.31;12199200;19;20472;-79
2023/07/20 18:37:05;;;;;;;4.32;1.60;;;;;;;23.62;39.31;99341.06;12221095;19;20531;-78
2023/07/20 18:41:07;;;;;;;4.10;2.33;;;;;;;23.46;39.35;99347.69;12220088;19;20353;-79
2023/07/20 18:45:09;;;;;;;5.10;1.70;;;;;;;23.26;39.65;99353.03;12197403;19;20006;-80
2023/07/20 18:49:11;;;;;;;3.15;1.63;;;;;;;23.10;40.35;99349.22;12219258;19;20020;-80
2023/07/20 18:53:12;;;;;;;4.00;1.70;;;;;;;22.91;41.42;99352.50;12220398;19;20010;-80